sensor_id;sensor_type;location;lat;lon;timestamp;pressure;altitude;pressure_sealevel;temperature;humidity
68380;BME280;57711;53.196;19.638;2023-05-20T00:01:49;101356.30;;;13.30;55.36
68380;BME280;57711;53.196;19.638;2023-05-20T00:04:16;101354.44;;;13.30;55.45
68380;BME280;57711;53.196;19.638;2023-05-20T00:06:43;101351.84;;;13.31;55.49
68380;BME280;57711;53.196;19.638;2023-05-20T00:09:11;101353.20;;;13.32;55.42
68380;BME280;57711;53.196;19.638;2023-05-20T00:11:38;101352.46;;;13.35;55.45
68380;BME280;57711;53.196;19.638;2023-05-20T00:14:05;101356.45;;;13.37;55.45
68380;BME280;57711;53.196;19.638;2023-05-20T00:16:32;101353.42;;;13.38;55.47
68380;BME280;57711;53.196;19.638;2023-05-20T00:19:00;101356.97;;;13.39;55.50
68380;BME280;57711;53.196;19.638;2023-05-20T00:21:27;101357.83;;;13.40;55.48
68380;BME280;57711;53.196;19.638;2023-05-20T00:23:55;101353.84;;;13.40;55.44
68380;BME280;57711;53.196;19.638;2023-05-20T00:26:22;101358.52;;;13.40;55.46
68380;BME280;57711;53.196;19.638;2023-05-20T00:28:51;101353.66;;;13.40;55.50
68380;BME280;57711;53.196;19.638;2023-05-20T00:31:18;101361.20;;;13.39;55.58
68380;BME280;57711;53.196;19.638;2023-05-20T00:33:45;101357.59;;;13.38;55.45
68380;BME280;57711;53.196;19.638;2023-05-20T00:36:13;101359.65;;;13.38;55.57
68380;BME280;57711;53.196;19.638;2023-05-20T00:38:40;101357.51;;;13.37;55.64
68380;BME280;57711;53.196;19.638;2023-05-20T00:41:07;101359.83;;;13.36;55.61
68380;BME280;57711;53.196;19.638;2023-05-20T00:43:34;101360.15;;;13.34;55.57
68380;BME280;57711;53.196;19.638;2023-05-20T00:46:02;101359.21;;;13.32;55.52
68380;BME280;57711;53.196;19.638;2023-05-20T00:48:35;101357.90;;;13.30;55.53
68380;BME280;57711;53.196;19.638;2023-05-20T00:51:05;101358.53;;;13.29;55.60
68380;BME280;57711;53.196;19.638;2023-05-20T00:53:33;101357.36;;;13.28;55.63
68380;BME280;57711;53.196;19.638;2023-05-20T00:56:02;101353.33;;;13.26;55.65
68380;BME280;57711;53.196;19.638;2023-05-20T00:58:30;101351.91;;;13.26;55.63
68380;BME280;57711;53.196;19.638;2023-05-20T01:00:58;101348.41;;;13.26;55.70
68380;BME280;57711;53.196;19.638;2023-05-20T01:03:25;101341.80;;;13.27;55.79
68380;BME280;57711;53.196;19.638;2023-05-20T01:05:53;101343.67;;;13.29;55.55
68380;BME280;57711;53.196;19.638;2023-05-20T01:08:24;101344.36;;;13.31;55.68
68380;BME280;57711;53.196;19.638;2023-05-20T01:11:07;101344.63;;;13.33;55.71
68380;BME280;57711;53.196;19.638;2023-05-20T01:13:40;101346.64;;;13.35;55.51
68380;BME280;57711;53.196;19.638;2023-05-20T01:16:10;101347.16;;;13.33;55.74
68380;BME280;57711;53.196;19.638;2023-05-20T01:18:38;101342.75;;;13.31;55.65
68380;BME280;57711;53.196;19.638;2023-05-20T01:21:06;101343.37;;;13.30;55.75
68380;BME280;57711;53.196;19.638;2023-05-20T01:23:38;101344.02;;;13.29;55.85
68380;BME280;57711;53.196;19.638;2023-05-20T01:26:08;101341.86;;;13.28;55.64
68380;BME280;57711;53.196;19.638;2023-05-20T01:28:41;101343.46;;;13.27;55.73
68380;BME280;57711;53.196;19.638;2023-05-20T01:31:19;101343.02;;;13.26;55.71
68380;BME280;57711;53.196;19.638;2023-05-20T01:33:53;101342.36;;;13.25;55.81
68380;BME280;57711;53.196;19.638;2023-05-20T01:36:22;101345.38;;;13.23;55.84
68380;BME280;57711;53.196;19.638;2023-05-20T01:38:49;101337.39;;;13.23;55.85
68380;BME280;57711;53.196;19.638;2023-05-20T01:41:17;101343.20;;;13.23;55.80
68380;BME280;57711;53.196;19.638;2023-05-20T01:43:45;101341.39;;;13.23;55.67
68380;BME280;57711;53.196;19.638;2023-05-20T01:46:12;101342.02;;;13.22;55.89
68380;BME280;57711;53.196;19.638;2023-05-20T01:48:40;101337.27;;;13.20;55.92
68380;BME280;57711;53.196;19.638;2023-05-20T01:51:09;101333.95;;;13.18;55.97
68380;BME280;57711;53.196;19.638;2023-05-20T01:53:36;101338.88;;;13.18;55.88
68380;BME280;57711;53.196;19.638;2023-05-20T01:56:04;101341.54;;;13.19;55.85
68380;BME280;57711;53.196;19.638;2023-05-20T01:58:32;101341.09;;;13.20;55.76
68380;BME280;57711;53.196;19.638;2023-05-20T02:00:59;101336.52;;;13.22;55.67
68380;BME280;57711;53.196;19.638;2023-05-20T02:03:27;101335.94;;;13.25;55.77
68380;BME280;57711;53.196;19.638;2023-05-20T02:05:55;101334.55;;;13.27;55.85
68380;BME280;57711;53.196;19.638;2023-05-20T02:08:22;101335.71;;;13.28;55.81
68380;BME280;57711;53.196;19.638;2023-05-20T02:10:49;101334.40;;;13.29;56.03
68380;BME280;57711;53.196;19.638;2023-05-20T02:13:17;101339.16;;;13.31;55.76
68380;BME280;57711;53.196;19.638;2023-05-20T02:15:44;101340.55;;;13.31;55.86
68380;BME280;57711;53.196;19.638;2023-05-20T02:18:11;101336.88;;;13.32;55.85
68380;BME280;57711;53.196;19.638;2023-05-20T02:20:40;101334.77;;;13.31;55.81
68380;BME280;57711;53.196;19.638;2023-05-20T02:23:08;101336.67;;;13.30;55.87
68380;BME280;57711;53.196;19.638;2023-05-20T02:25:35;101334.49;;;13.27;55.97
68380;BME280;57711;53.196;19.638;2023-05-20T02:28:03;101335.19;;;13.25;56.02
68380;BME280;57711;53.196;19.638;2023-05-20T02:30:32;101337.00;;;13.24;55.94
68380;BME280;57711;53.196;19.638;2023-05-20T02:32:59;101335.42;;;13.22;55.81
68380;BME280;57711;53.196;19.638;2023-05-20T02:35:26;101333.18;;;13.21;55.89
68380;BME280;57711;53.196;19.638;2023-05-20T02:37:53;101329.89;;;13.19;56.12
68380;BME280;57711;53.196;19.638;2023-05-20T02:40:21;101325.61;;;13.16;56.06
68380;BME280;57711;53.196;19.638;2023-05-20T02:42:48;101331.61;;;13.14;55.96
68380;BME280;57711;53.196;19.638;2023-05-20T02:45:16;101337.66;;;13.13;56.12
68380;BME280;57711;53.196;19.638;2023-05-20T02:47:44;101335.77;;;13.14;55.96
68380;BME280;57711;53.196;19.638;2023-05-20T02:50:11;101334.02;;;13.16;56.08
68380;BME280;57711;53.196;19.638;2023-05-20T02:52:38;101332.38;;;13.18;56.03
68380;BME280;57711;53.196;19.638;2023-05-20T02:55:08;101331.61;;;13.20;55.98
68380;BME280;57711;53.196;19.638;2023-05-20T02:57:36;101330.69;;;13.22;55.89
68380;BME280;57711;53.196;19.638;2023-05-20T03:00:07;101331.17;;;13.24;55.76
68380;BME280;57711;53.196;19.638;2023-05-20T03:02:36;101330.70;;;13.25;55.88
68380;BME280;57711;53.196;19.638;2023-05-20T03:05:04;101331.19;;;13.26;55.97
68380;BME280;57711;53.196;19.638;2023-05-20T03:07:33;101326.95;;;13.27;55.95
68380;BME280;57711;53.196;19.638;2023-05-20T03:10:05;101325.78;;;13.28;56.00
68380;BME280;57711;53.196;19.638;2023-05-20T03:12:32;101325.82;;;13.27;56.17
68380;BME280;57711;53.196;19.638;2023-05-20T03:15:00;101322.00;;;13.25;55.93
68380;BME280;57711;53.196;19.638;2023-05-20T03:17:27;101320.95;;;13.22;56.01
68380;BME280;57711;53.196;19.638;2023-05-20T03:19:55;101323.77;;;13.21;56.15
68380;BME280;57711;53.196;19.638;2023-05-20T03:22:23;101322.02;;;13.20;56.14
68380;BME280;57711;53.196;19.638;2023-05-20T03:24:50;101326.40;;;13.20;56.27
68380;BME280;57711;53.196;19.638;2023-05-20T03:27:19;101333.86;;;13.19;56.14
68380;BME280;57711;53.196;19.638;2023-05-20T03:29:47;101333.69;;;13.19;56.09
68380;BME280;57711;53.196;19.638;2023-05-20T03:32:15;101327.54;;;13.19;56.27
68380;BME280;57711;53.196;19.638;2023-05-20T03:34:43;101325.81;;;13.18;56.13
68380;BME280;57711;53.196;19.638;2023-05-20T03:37:10;101331.76;;;13.17;56.08
68380;BME280;57711;53.196;19.638;2023-05-20T03:39:37;101332.73;;;13.16;55.93
68380;BME280;57711;53.196;19.638;2023-05-20T03:42:05;101332.08;;;13.17;55.97
68380;BME280;57711;53.196;19.638;2023-05-20T03:44:33;101335.00;;;13.19;56.23
68380;BME280;57711;53.196;19.638;2023-05-20T03:47:01;101337.46;;;13.22;56.12
68380;BME280;57711;53.196;19.638;2023-05-20T03:49:29;101338.72;;;13.25;56.21
68380;BME280;57711;53.196;19.638;2023-05-20T03:51:56;101342.90;;;13.27;56.13
68380;BME280;57711;53.196;19.638;2023-05-20T03:54:24;101347.48;;;13.29;56.10
68380;BME280;57711;53.196;19.638;2023-05-20T03:56:51;101350.09;;;13.30;56.34
68380;BME280;57711;53.196;19.638;2023-05-20T03:59:18;101353.41;;;13.32;56.27
68380;BME280;57711;53.196;19.638;2023-05-20T04:01:48;101355.30;;;13.33;56.26
68380;BME280;57711;53.196;19.638;2023-05-20T04:04:15;101356.11;;;13.34;56.09
68380;BME280;57711;53.196;19.638;2023-05-20T04:06:42;101355.80;;;13.36;56.17
68380;BME280;57711;53.196;19.638;2023-05-20T04:09:10;101352.64;;;13.37;56.26
68380;BME280;57711;53.196;19.638;2023-05-20T04:11:37;101347.77;;;13.36;55.96
68380;BME280;57711;53.196;19.638;2023-05-20T04:14:05;101347.55;;;13.36;56.17
68380;BME280;57711;53.196;19.638;2023-05-20T04:16:32;101349.67;;;13.35;56.16
68380;BME280;57711;53.196;19.638;2023-05-20T04:19:00;101346.42;;;13.35;56.16
68380;BME280;57711;53.196;19.638;2023-05-20T04:21:29;101344.80;;;13.35;56.31
68380;BME280;57711;53.196;19.638;2023-05-20T04:23:57;101343.83;;;13.34;56.29
68380;BME280;57711;53.196;19.638;2023-05-20T04:26:24;101341.25;;;13.34;56.30
68380;BME280;57711;53.196;19.638;2023-05-20T04:28:52;101339.96;;;13.34;56.19
68380;BME280;57711;53.196;19.638;2023-05-20T04:31:19;101337.85;;;13.33;56.38
68380;BME280;57711;53.196;19.638;2023-05-20T04:33:53;101335.55;;;13.35;56.17
68380;BME280;57711;53.196;19.638;2023-05-20T04:36:21;101334.63;;;13.37;56.29
68380;BME280;57711;53.196;19.638;2023-05-20T04:38:48;101332.32;;;13.38;56.50
68380;BME280;57711;53.196;19.638;2023-05-20T04:41:16;101332.63;;;13.41;56.23
68380;BME280;57711;53.196;19.638;2023-05-20T04:43:43;101332.62;;;13.44;56.27
68380;BME280;57711;53.196;19.638;2023-05-20T04:46:11;101332.84;;;13.45;56.38
68380;BME280;57711;53.196;19.638;2023-05-20T04:48:41;101337.71;;;13.48;56.42
68380;BME280;57711;53.196;19.638;2023-05-20T04:51:12;101340.05;;;13.51;56.48
68380;BME280;57711;53.196;19.638;2023-05-20T04:53:39;101338.55;;;13.51;56.35
68380;BME280;57711;53.196;19.638;2023-05-20T04:56:06;101342.83;;;13.52;56.23
68380;BME280;57711;53.196;19.638;2023-05-20T04:58:34;101346.66;;;13.52;56.32
68380;BME280;57711;53.196;19.638;2023-05-20T05:01:01;101341.85;;;13.52;56.54
68380;BME280;57711;53.196;19.638;2023-05-20T05:03:29;101345.46;;;13.55;56.57
68380;BME280;57711;53.196;19.638;2023-05-20T05:05:57;101349.06;;;13.56;56.46
68380;BME280;57711;53.196;19.638;2023-05-20T05:08:25;101346.80;;;13.56;56.41
68380;BME280;57711;53.196;19.638;2023-05-20T05:10:52;101346.56;;;13.57;56.48
68380;BME280;57711;53.196;19.638;2023-05-20T05:13:20;101342.52;;;13.57;56.60
68380;BME280;57711;53.196;19.638;2023-05-20T05:15:47;101345.08;;;13.57;56.60
68380;BME280;57711;53.196;19.638;2023-05-20T05:18:14;101346.27;;;13.58;56.40
68380;BME280;57711;53.196;19.638;2023-05-20T05:20:44;101349.99;;;13.59;56.39
68380;BME280;57711;53.196;19.638;2023-05-20T05:23:12;101348.19;;;13.62;56.27
68380;BME280;57711;53.196;19.638;2023-05-20T05:25:39;101349.84;;;13.64;56.46
68380;BME280;57711;53.196;19.638;2023-05-20T05:28:06;101348.46;;;13.67;56.42
68380;BME280;57711;53.196;19.638;2023-05-20T05:30:34;101350.14;;;13.71;56.37
68380;BME280;57711;53.196;19.638;2023-05-20T05:33:01;101347.54;;;13.76;56.50
68380;BME280;57711;53.196;19.638;2023-05-20T05:35:28;101347.53;;;13.80;56.57
68380;BME280;57711;53.196;19.638;2023-05-20T05:37:56;101349.83;;;13.83;56.59
68380;BME280;57711;53.196;19.638;2023-05-20T05:40:23;101353.48;;;13.85;56.42
68380;BME280;57711;53.196;19.638;2023-05-20T05:42:50;101347.85;;;13.87;56.65
68380;BME280;57711;53.196;19.638;2023-05-20T05:45:17;101349.36;;;13.88;56.56
68380;BME280;57711;53.196;19.638;2023-05-20T05:47:45;101354.27;;;13.90;56.51
68380;BME280;57711;53.196;19.638;2023-05-20T05:50:13;101358.46;;;13.92;56.58
68380;BME280;57711;53.196;19.638;2023-05-20T05:52:41;101348.93;;;13.93;56.40
68380;BME280;57711;53.196;19.638;2023-05-20T05:55:10;101353.02;;;13.94;56.67
68380;BME280;57711;53.196;19.638;2023-05-20T05:57:37;101356.90;;;13.96;56.55
68380;BME280;57711;53.196;19.638;2023-05-20T06:00:06;101355.94;;;13.96;56.58
68380;BME280;57711;53.196;19.638;2023-05-20T06:02:44;101351.84;;;13.97;56.59
68380;BME280;57711;53.196;19.638;2023-05-20T06:05:12;101353.63;;;13.98;56.67
68380;BME280;57711;53.196;19.638;2023-05-20T06:07:39;101353.94;;;13.99;56.62
68380;BME280;57711;53.196;19.638;2023-05-20T06:10:07;101354.32;;;14.01;56.56
68380;BME280;57711;53.196;19.638;2023-05-20T06:12:35;101353.96;;;14.03;56.54
68380;BME280;57711;53.196;19.638;2023-05-20T06:15:03;101351.41;;;14.05;56.50
68380;BME280;57711;53.196;19.638;2023-05-20T06:17:30;101356.23;;;14.06;56.54
68380;BME280;57711;53.196;19.638;2023-05-20T06:19:57;101358.69;;;14.07;56.63
68380;BME280;57711;53.196;19.638;2023-05-20T06:22:26;101354.83;;;14.07;56.67
68380;BME280;57711;53.196;19.638;2023-05-20T06:24:54;101351.82;;;14.08;56.65
68380;BME280;57711;53.196;19.638;2023-05-20T06:27:22;101351.44;;;14.11;56.62
68380;BME280;57711;53.196;19.638;2023-05-20T06:29:49;101349.97;;;14.15;56.51
68380;BME280;57711;53.196;19.638;2023-05-20T06:32:17;101350.34;;;14.19;56.36
68380;BME280;57711;53.196;19.638;2023-05-20T06:34:44;101355.08;;;14.25;56.63
68380;BME280;57711;53.196;19.638;2023-05-20T06:37:12;101352.86;;;14.32;56.65
68380;BME280;57711;53.196;19.638;2023-05-20T06:39:39;101353.04;;;14.39;56.59
68380;BME280;57711;53.196;19.638;2023-05-20T06:42:07;101356.17;;;14.46;56.62
68380;BME280;57711;53.196;19.638;2023-05-20T06:44:35;101352.89;;;14.53;56.71
68380;BME280;57711;53.196;19.638;2023-05-20T06:47:31;101348.30;;;14.62;56.51
68380;BME280;57711;53.196;19.638;2023-05-20T06:50:00;101346.04;;;14.68;56.58
68380;BME280;57711;53.196;19.638;2023-05-20T06:52:28;101346.61;;;14.76;56.51
68380;BME280;57711;53.196;19.638;2023-05-20T06:54:55;101344.66;;;14.86;56.59
68380;BME280;57711;53.196;19.638;2023-05-20T06:57:22;101342.52;;;14.96;56.46
68380;BME280;57711;53.196;19.638;2023-05-20T06:59:50;101342.61;;;15.07;56.55
68380;BME280;57711;53.196;19.638;2023-05-20T07:02:18;101342.14;;;15.18;56.61
68380;BME280;57711;53.196;19.638;2023-05-20T07:04:45;101340.80;;;15.26;56.25
68380;BME280;57711;53.196;19.638;2023-05-20T07:07:13;101339.64;;;15.35;56.49
68380;BME280;57711;53.196;19.638;2023-05-20T07:09:43;101343.47;;;15.41;56.46
68380;BME280;57711;53.196;19.638;2023-05-20T07:12:11;101339.83;;;15.43;56.34
68380;BME280;57711;53.196;19.638;2023-05-20T07:14:38;101342.78;;;15.42;56.12
68380;BME280;57711;53.196;19.638;2023-05-20T07:17:05;101337.31;;;15.39;56.20
68380;BME280;57711;53.196;19.638;2023-05-20T07:19:33;101336.91;;;15.37;56.13
68380;BME280;57711;53.196;19.638;2023-05-20T07:22:01;101336.41;;;15.35;56.19
68380;BME280;57711;53.196;19.638;2023-05-20T07:24:45;101339.10;;;15.33;56.31
68380;BME280;57711;53.196;19.638;2023-05-20T07:27:13;101333.63;;;15.33;56.25
68380;BME280;57711;53.196;19.638;2023-05-20T07:29:40;101333.11;;;15.35;56.23
68380;BME280;57711;53.196;19.638;2023-05-20T07:32:09;101336.91;;;15.37;56.14
68380;BME280;57711;53.196;19.638;2023-05-20T07:34:37;101335.63;;;15.39;56.02
68380;BME280;57711;53.196;19.638;2023-05-20T07:37:04;101339.06;;;15.39;56.23
68380;BME280;57711;53.196;19.638;2023-05-20T07:39:32;101339.55;;;15.40;56.32
68380;BME280;57711;53.196;19.638;2023-05-20T07:41:59;101331.70;;;15.40;56.17
68380;BME280;57711;53.196;19.638;2023-05-20T07:44:26;101325.26;;;15.41;56.10
68380;BME280;57711;53.196;19.638;2023-05-20T07:46:54;101324.34;;;15.43;56.24
68380;BME280;57711;53.196;19.638;2023-05-20T07:49:22;101323.45;;;15.48;56.24
68380;BME280;57711;53.196;19.638;2023-05-20T07:51:49;101319.05;;;15.57;56.17
68380;BME280;57711;53.196;19.638;2023-05-20T07:54:16;101319.83;;;15.66;56.18
68380;BME280;57711;53.196;19.638;2023-05-20T07:56:46;101315.31;;;15.74;56.14
68380;BME280;57711;53.196;19.638;2023-05-20T07:59:13;101317.32;;;15.81;56.16
68380;BME280;57711;53.196;19.638;2023-05-20T08:01:43;101317.29;;;15.90;56.21
68380;BME280;57711;53.196;19.638;2023-05-20T08:04:12;101320.27;;;15.93;56.05
68380;BME280;57711;53.196;19.638;2023-05-20T08:06:40;101318.55;;;15.94;56.05
68380;BME280;57711;53.196;19.638;2023-05-20T08:09:10;101319.38;;;15.93;55.88
68380;BME280;57711;53.196;19.638;2023-05-20T08:11:40;101323.92;;;15.93;56.11
68380;BME280;57711;53.196;19.638;2023-05-20T08:14:07;101325.73;;;15.99;56.03
68380;BME280;57711;53.196;19.638;2023-05-20T08:16:38;101319.52;;;16.06;56.06
68380;BME280;57711;53.196;19.638;2023-05-20T08:19:05;101318.34;;;16.18;56.05
68380;BME280;57711;53.196;19.638;2023-05-20T08:21:32;101315.42;;;16.34;56.01
68380;BME280;57711;53.196;19.638;2023-05-20T08:24:01;101315.55;;;16.44;56.07
68380;BME280;57711;53.196;19.638;2023-05-20T08:26:30;101315.49;;;16.48;55.81
68380;BME280;57711;53.196;19.638;2023-05-20T08:28:57;101310.17;;;16.48;55.90
68380;BME280;57711;53.196;19.638;2023-05-20T08:31:24;101304.11;;;16.47;55.75
68380;BME280;57711;53.196;19.638;2023-05-20T08:33:52;101304.86;;;16.47;55.67
68380;BME280;57711;53.196;19.638;2023-05-20T08:36:20;101304.66;;;16.52;55.87
68380;BME280;57711;53.196;19.638;2023-05-20T08:38:48;101304.65;;;16.62;55.82
68380;BME280;57711;53.196;19.638;2023-05-20T08:41:15;101306.80;;;16.81;55.89
68380;BME280;57711;53.196;19.638;2023-05-20T08:43:44;101300.41;;;17.05;55.89
68380;BME280;57711;53.196;19.638;2023-05-20T08:46:11;101296.09;;;17.26;55.94
68380;BME280;57711;53.196;19.638;2023-05-20T08:48:40;101294.10;;;17.48;55.96
68380;BME280;57711;53.196;19.638;2023-05-20T08:51:08;101289.43;;;17.72;55.95
68380;BME280;57711;53.196;19.638;2023-05-20T08:53:37;101290.71;;;17.93;55.95
68380;BME280;57711;53.196;19.638;2023-05-20T08:56:04;101291.61;;;18.09;55.77
68380;BME280;57711;53.196;19.638;2023-05-20T08:58:32;101289.96;;;18.29;55.74
68380;BME280;57711;53.196;19.638;2023-05-20T09:01:00;101287.64;;;18.51;55.72
68380;BME280;57711;53.196;19.638;2023-05-20T09:03:28;101288.98;;;18.67;55.59
68380;BME280;57711;53.196;19.638;2023-05-20T09:06:08;101292.15;;;18.80;55.42
68380;BME280;57711;53.196;19.638;2023-05-20T09:08:35;101283.39;;;18.99;55.39
68380;BME280;57711;53.196;19.638;2023-05-20T09:11:03;101280.98;;;19.21;55.65
68380;BME280;57711;53.196;19.638;2023-05-20T09:13:30;101280.80;;;19.44;55.55
68380;BME280;57711;53.196;19.638;2023-05-20T09:16:01;101277.71;;;19.67;55.47
68380;BME280;57711;53.196;19.638;2023-05-20T09:18:28;101278.61;;;19.87;55.33
68380;BME280;57711;53.196;19.638;2023-05-20T09:20:56;101279.99;;;20.04;55.23
68380;BME280;57711;53.196;19.638;2023-05-20T09:23:23;101275.17;;;20.11;55.03
68380;BME280;57711;53.196;19.638;2023-05-20T09:25:56;101277.48;;;20.10;55.01
68380;BME280;57711;53.196;19.638;2023-05-20T09:28:26;101270.91;;;20.08;55.02
68380;BME280;57711;53.196;19.638;2023-05-20T09:30:57;101271.22;;;20.06;55.10
68380;BME280;57711;53.196;19.638;2023-05-20T09:33:29;101272.73;;;20.04;54.88
68380;BME280;57711;53.196;19.638;2023-05-20T09:36:05;101270.99;;;20.01;54.90
68380;BME280;57711;53.196;19.638;2023-05-20T09:38:36;101269.68;;;20.01;54.95
68380;BME280;57711;53.196;19.638;2023-05-20T09:41:11;101271.75;;;20.01;54.77
68380;BME280;57711;53.196;19.638;2023-05-20T09:43:39;101275.98;;;20.01;54.80
68380;BME280;57711;53.196;19.638;2023-05-20T09:46:06;101270.28;;;19.99;54.76
68380;BME280;57711;53.196;19.638;2023-05-20T09:48:34;101273.92;;;19.98;54.82
68380;BME280;57711;53.196;19.638;2023-05-20T09:51:06;101274.55;;;19.97;54.84
68380;BME280;57711;53.196;19.638;2023-05-20T09:53:34;101274.13;;;19.98;54.70
68380;BME280;57711;53.196;19.638;2023-05-20T09:56:02;101276.30;;;19.98;54.79
68380;BME280;57711;53.196;19.638;2023-05-20T09:58:29;101275.37;;;19.98;54.65
68380;BME280;57711;53.196;19.638;2023-05-20T10:00:57;101277.56;;;19.95;54.50
68380;BME280;57711;53.196;19.638;2023-05-20T10:03:24;101280.05;;;19.91;54.60
68380;BME280;57711;53.196;19.638;2023-05-20T10:11:27;101266.75;;;19.80;54.59
68380;BME280;57711;53.196;19.638;2023-05-20T10:17:12;101260.28;;;19.82;54.47
68380;BME280;57711;53.196;19.638;2023-05-20T10:19:43;101259.82;;;19.86;54.47
68380;BME280;57711;53.196;19.638;2023-05-20T10:22:10;101258.86;;;19.92;54.41
68380;BME280;57711;53.196;19.638;2023-05-20T10:24:42;101252.89;;;19.97;54.43
68380;BME280;57711;53.196;19.638;2023-05-20T10:27:12;101251.77;;;20.05;54.42
68380;BME280;57711;53.196;19.638;2023-05-20T10:29:50;101247.15;;;20.23;54.48
68380;BME280;57711;53.196;19.638;2023-05-20T10:32:28;101243.83;;;20.49;54.67
68380;BME280;57711;53.196;19.638;2023-05-20T10:35:06;101240.48;;;20.75;54.47
68380;BME280;57711;53.196;19.638;2023-05-20T10:37:43;101245.29;;;21.01;54.34
68380;BME280;57711;53.196;19.638;2023-05-20T10:40:12;101241.36;;;21.22;54.37
68380;BME280;57711;53.196;19.638;2023-05-20T10:42:40;101233.26;;;21.41;54.20
68380;BME280;57711;53.196;19.638;2023-05-20T10:45:08;101226.09;;;21.61;54.24
68380;BME280;57711;53.196;19.638;2023-05-20T10:47:41;101226.58;;;21.83;54.06
68380;BME280;57711;53.196;19.638;2023-05-20T10:50:25;101220.71;;;22.02;54.10
68380;BME280;57711;53.196;19.638;2023-05-20T10:53:00;101223.85;;;22.21;53.94
68380;BME280;57711;53.196;19.638;2023-05-20T10:55:35;101216.13;;;22.38;53.88
68380;BME280;57711;53.196;19.638;2023-05-20T10:58:04;101213.16;;;22.53;53.98
68380;BME280;57711;53.196;19.638;2023-05-20T11:00:35;101216.02;;;22.65;53.94
68380;BME280;57711;53.196;19.638;2023-05-20T11:03:04;101213.67;;;22.75;53.62
68380;BME280;57711;53.196;19.638;2023-05-20T11:05:33;101206.25;;;22.84;53.65
68380;BME280;57711;53.196;19.638;2023-05-20T11:08:02;101204.23;;;22.94;53.70
68380;BME280;57711;53.196;19.638;2023-05-20T11:10:36;101207.30;;;23.08;53.64
68380;BME280;57711;53.196;19.638;2023-05-20T11:13:04;101202.98;;;23.15;53.45
68380;BME280;57711;53.196;19.638;2023-05-20T11:15:34;101195.80;;;23.16;53.50
68380;BME280;57711;53.196;19.638;2023-05-20T11:18:03;101199.82;;;23.22;53.39
68380;BME280;57711;53.196;19.638;2023-05-20T11:20:30;101195.77;;;23.30;53.40
68380;BME280;57711;53.196;19.638;2023-05-20T11:23:01;101187.26;;;23.39;53.25
68380;BME280;57711;53.196;19.638;2023-05-20T11:25:32;101186.18;;;23.48;53.35
68380;BME280;57711;53.196;19.638;2023-05-20T11:27:59;101183.05;;;23.54;53.20
68380;BME280;57711;53.196;19.638;2023-05-20T11:30:26;101183.46;;;23.50;53.07
68380;BME280;57711;53.196;19.638;2023-05-20T11:33:00;101183.25;;;23.49;52.98
68380;BME280;57711;53.196;19.638;2023-05-20T11:35:29;101173.61;;;23.36;52.82
68380;BME280;57711;53.196;19.638;2023-05-20T11:40:27;101168.11;;;23.32;52.95
68380;BME280;57711;53.196;19.638;2023-05-20T11:43:13;101167.10;;;23.37;52.99
68380;BME280;57711;53.196;19.638;2023-05-20T11:45:44;101167.21;;;23.42;52.82
68380;BME280;57711;53.196;19.638;2023-05-20T11:48:13;101169.19;;;23.37;52.95
68380;BME280;57711;53.196;19.638;2023-05-20T11:50:45;101167.04;;;23.31;52.79
68380;BME280;57711;53.196;19.638;2023-05-20T11:53:18;101161.45;;;23.26;52.75
68380;BME280;57711;53.196;19.638;2023-05-20T11:55:57;101161.13;;;23.19;52.65
68380;BME280;57711;53.196;19.638;2023-05-20T11:58:26;101165.91;;;23.10;52.53
68380;BME280;57711;53.196;19.638;2023-05-20T12:00:55;101161.22;;;22.96;52.42
68380;BME280;57711;53.196;19.638;2023-05-20T12:03:35;101158.24;;;22.89;52.52
68380;BME280;57711;53.196;19.638;2023-05-20T12:06:03;101151.89;;;22.96;52.59
68380;BME280;57711;53.196;19.638;2023-05-20T12:08:30;101151.83;;;23.02;52.58
68380;BME280;57711;53.196;19.638;2023-05-20T12:10:57;101153.95;;;23.06;52.50
68380;BME280;57711;53.196;19.638;2023-05-20T12:13:25;101154.55;;;23.07;52.41
68380;BME280;57711;53.196;19.638;2023-05-20T12:15:52;101156.69;;;23.03;52.28
68380;BME280;57711;53.196;19.638;2023-05-20T12:18:21;101153.52;;;22.97;52.14
68380;BME280;57711;53.196;19.638;2023-05-20T12:20:48;101152.53;;;22.88;52.09
68380;BME280;57711;53.196;19.638;2023-05-20T12:23:15;101152.77;;;22.74;51.96
68380;BME280;57711;53.196;19.638;2023-05-20T12:25:43;101147.92;;;22.60;52.06
68380;BME280;57711;53.196;19.638;2023-05-20T12:28:13;101156.23;;;22.47;51.95
68380;BME280;57711;53.196;19.638;2023-05-20T12:30:40;101154.91;;;22.37;52.09
68380;BME280;57711;53.196;19.638;2023-05-20T12:33:08;101155.23;;;22.31;51.94
68380;BME280;57711;53.196;19.638;2023-05-20T12:35:37;101156.44;;;22.27;51.93
68380;BME280;57711;53.196;19.638;2023-05-20T12:38:05;101156.45;;;22.20;51.74
68380;BME280;57711;53.196;19.638;2023-05-20T12:40:34;101157.29;;;22.10;51.83
68380;BME280;57711;53.196;19.638;2023-05-20T12:43:02;101148.88;;;22.03;51.78
68380;BME280;57711;53.196;19.638;2023-05-20T12:45:30;101148.30;;;22.08;51.96
68380;BME280;57711;53.196;19.638;2023-05-20T12:47:57;101143.83;;;22.23;51.94
68380;BME280;57711;53.196;19.638;2023-05-20T12:50:25;101141.58;;;22.34;51.84
68380;BME280;57711;53.196;19.638;2023-05-20T12:52:53;101139.27;;;22.37;51.74
68380;BME280;57711;53.196;19.638;2023-05-20T12:55:20;101130.83;;;22.41;51.67
68380;BME280;57711;53.196;19.638;2023-05-20T12:57:48;101136.14;;;22.47;51.77
68380;BME280;57711;53.196;19.638;2023-05-20T13:00:16;101136.88;;;22.54;51.58